createdAt,value
2023-01-20T00:00:06.023Z,99782.81
2023-01-20T00:02:39.041Z,99785.28
2023-01-20T00:05:06.458Z,99776.75
2023-01-20T00:07:34.959Z,99788.63
2023-01-20T00:10:01.731Z,99784.72
2023-01-20T00:12:31.239Z,99786.53
2023-01-20T00:14:58.210Z,99789.28
2023-01-20T00:17:24.876Z,99797.75
2023-01-20T00:19:51.479Z,99798.84
2023-01-20T00:22:18.136Z,99797.47
2023-01-20T00:24:44.739Z,99801.59
2023-01-20T00:27:13.436Z,99803.69
2023-01-20T00:29:40.036Z,99797.19
2023-01-20T00:32:06.711Z,99806.59
2023-01-20T00:34:33.324Z,99802.16
2023-01-20T00:37:07.565Z,99804.00
2023-01-20T00:39:34.297Z,99804.81
2023-01-20T00:42:03.125Z,99812.72
2023-01-20T00:44:29.743Z,99806.47
2023-01-20T00:47:02.457Z,99814.50
2023-01-20T00:49:33.741Z,99817.53
2023-01-20T00:52:07.551Z,99821.81
2023-01-20T00:54:34.185Z,99819.47
2023-01-20T00:57:02.844Z,99823.47
2023-01-20T00:59:29.453Z,99830.38
2023-01-20T01:01:58.525Z,99836.06
2023-01-20T01:04:36.409Z,99836.19
2023-01-20T01:07:05.562Z,99829.38
2023-01-20T01:09:37.773Z,99839.91
2023-01-20T01:12:04.478Z,99852.38
2023-01-20T01:14:34.022Z,99837.66
2023-01-20T01:17:08.067Z,99851.78
2023-01-20T01:19:34.721Z,99839.03
2023-01-20T01:22:04.346Z,99844.91
2023-01-20T01:24:38.426Z,99845.84
2023-01-20T01:27:05.095Z,99839.16
2023-01-20T01:29:34.450Z,99833.78
2023-01-20T01:32:11.530Z,99836.09
2023-01-20T01:34:38.222Z,99834.63
2023-01-20T01:37:04.896Z,99837.66
2023-01-20T01:39:42.868Z,99835.94
2023-01-20T01:42:12.325Z,99833.75
2023-01-20T01:45:10.949Z,99818.53
2023-01-20T01:48:01.034Z,99817.00
2023-01-20T01:50:46.045Z,99802.09
2023-01-20T01:53:13.931Z,99798.38
2023-01-20T01:55:46.426Z,99791.75
2023-01-20T01:58:17.320Z,99788.53
2023-01-20T02:00:44.270Z,99782.81
2023-01-20T02:03:13.541Z,99783.00
2023-01-20T02:05:41.575Z,99780.38
2023-01-20T02:08:08.612Z,99778.88
2023-01-20T02:10:35.266Z,99780.81
2023-01-20T02:13:03.342Z,99773.09
2023-01-20T02:16:05.336Z,99771.56
2023-01-20T02:18:38.416Z,99771.00
2023-01-20T02:21:17.216Z,99773.78
2023-01-20T02:23:53.436Z,99779.56
2023-01-20T02:26:44.473Z,99782.78
2023-01-20T02:29:29.996Z,99784.16
2023-01-20T02:32:14.010Z,99792.75
2023-01-20T02:34:46.668Z,99795.19
2023-01-20T02:37:19.950Z,99796.66
2023-01-20T02:39:52.488Z,99786.59
2023-01-20T02:42:22.829Z,99793.41
2023-01-20T02:44:55.442Z,99791.97
2023-01-20T02:47:26.474Z,99786.66
2023-01-20T02:50:01.542Z,99791.47
2023-01-20T02:52:44.370Z,99786.78
2023-01-20T02:55:15.584Z,99781.06
2023-01-20T02:57:44.785Z,99792.13
2023-01-20T03:00:34.293Z,99777.22
2023-01-20T03:03:02.545Z,99780.75
2023-01-20T03:05:35.793Z,99775.06
2023-01-20T03:08:06.106Z,99772.19
2023-01-20T03:10:33.865Z,99775.50
2023-01-20T03:13:29.678Z,99767.81
2023-01-20T03:16:02.675Z,99768.38
2023-01-20T03:18:30.115Z,99766.19
2023-01-20T03:20:58.058Z,99764.25
2023-01-20T03:23:26.515Z,99761.19
2023-01-20T03:25:54.007Z,99764.50
2023-01-20T03:28:20.579Z,99752.34
2023-01-20T03:30:47.241Z,99754.22
2023-01-20T03:33:15.186Z,99756.75
2023-01-20T03:35:42.334Z,99757.56
2023-01-20T03:38:10.085Z,99760.59
2023-01-20T03:40:48.954Z,99765.88
2023-01-20T03:43:40.615Z,99762.31
2023-01-20T03:46:16.177Z,99759.91
2023-01-20T03:48:51.050Z,99769.19
2023-01-20T03:51:17.615Z,99773.19
2023-01-20T03:53:45.933Z,99770.84
2023-01-20T03:56:23.097Z,99774.28
2023-01-20T03:58:51.788Z,99764.72
2023-01-20T04:01:21.902Z,99766.97
2023-01-20T04:03:51.041Z,99760.22
2023-01-20T04:06:19.763Z,99767.66
2023-01-20T04:08:51.180Z,99757.59
2023-01-20T04:11:20.379Z,99762.25
2023-01-20T04:13:47.129Z,99765.03
2023-01-20T04:16:17.979Z,99768.13
2023-01-20T04:18:55.515Z,99762.38
2023-01-20T04:21:49.004Z,99768.50
2023-01-20T04:24:23.875Z,99775.22
2023-01-20T04:26:50.499Z,99773.19
2023-01-20T04:29:17.219Z,99778.53
2023-01-20T04:31:43.831Z,99769.94
2023-01-20T04:34:13.032Z,99774.75
2023-01-20T04:36:39.649Z,99784.47
2023-01-20T04:39:06.245Z,99781.16
2023-01-20T04:41:32.918Z,99776.03
2023-01-20T04:43:59.550Z,99783.84
2023-01-20T04:46:26.247Z,99783.84
2023-01-20T04:48:52.925Z,99777.75
2023-01-20T04:51:19.578Z,99779.41
2023-01-20T04:53:46.249Z,99787.94
2023-01-20T04:56:15.973Z,99780.34
2023-01-20T04:58:45.892Z,99787.00
2023-01-20T05:01:15.388Z,99790.47
2023-01-20T05:03:44.953Z,99783.56
2023-01-20T05:06:14.534Z,99796.22
2023-01-20T05:08:50.168Z,99795.91
2023-01-20T05:11:16.866Z,99803.06
2023-01-20T05:13:43.593Z,99798.22
2023-01-20T05:16:23.882Z,99801.16
2023-01-20T05:18:50.834Z,99801.16
2023-01-20T05:21:17.478Z,99798.78
2023-01-20T05:23:46.603Z,99817.81
2023-01-20T05:26:16.045Z,99816.44
2023-01-20T05:28:45.672Z,99826.69
2023-01-20T05:31:21.556Z,99827.91
2023-01-20T05:33:48.368Z,99832.97
2023-01-20T05:36:15.006Z,99845.97
2023-01-20T05:38:51.795Z,99852.91
2023-01-20T05:41:19.538Z,99854.16
2023-01-20T05:43:46.179Z,99867.78
2023-01-20T05:46:22.120Z,99875.94
2023-01-20T05:48:48.721Z,99878.56
2023-01-20T05:51:15.300Z,99878.97
2023-01-20T05:53:43.987Z,99883.28
2023-01-20T05:56:19.663Z,99895.44
2023-01-20T05:58:46.318Z,99903.06
2023-01-20T06:01:14.216Z,99912.59
2023-01-20T06:03:45.440Z,99914.69
2023-01-20T06:06:17.766Z,99929.50
2023-01-20T06:08:45.376Z,99939.44
2023-01-20T06:11:15.186Z,99945.41
2023-01-20T06:13:46.799Z,99946.09
2023-01-20T06:16:13.455Z,99961.34
2023-01-20T06:18:44.619Z,99966.44
2023-01-20T06:21:15.310Z,99976.00
2023-01-20T06:23:44.819Z,99980.94
2023-01-20T06:26:15.303Z,99989.94
2023-01-20T06:28:41.996Z,99994.66
2023-01-20T06:31:18.909Z,100002.44
2023-01-20T06:33:45.673Z,100003.53
2023-01-20T06:36:17.467Z,100013.63
2023-01-20T06:38:48.489Z,100015.69
2023-01-20T06:41:15.558Z,100021.69
2023-01-20T06:43:45.363Z,100033.72
2023-01-20T06:46:15.700Z,100037.47
2023-01-20T06:48:43.488Z,100049.78
2023-01-20T06:51:19.193Z,100058.13
2023-01-20T06:53:46.692Z,100052.84
2023-01-20T06:56:16.325Z,100064.84
2023-01-20T06:58:43.200Z,100062.91
2023-01-20T07:01:15.919Z,100071.50
2023-01-20T07:03:45.941Z,100079.22
2023-01-20T07:06:35.872Z,100088.94
2023-01-20T07:09:02.769Z,100093.50
2023-01-20T07:11:31.393Z,100104.06
2023-01-20T07:13:58.452Z,100109.88
2023-01-20T07:16:25.216Z,100106.97
2023-01-20T07:18:52.700Z,100119.03
2023-01-20T07:21:23.948Z,100110.47
2023-01-20T07:23:51.971Z,100122.38
2023-01-20T07:26:21.200Z,100133.50
2023-01-20T07:28:48.383Z,100135.56
2023-01-20T07:31:20.789Z,100143.91
2023-01-20T07:33:47.852Z,100147.91
2023-01-20T07:36:17.854Z,100148.63
2023-01-20T07:38:48.545Z,100152.91
2023-01-20T07:41:16.392Z,100168.28
2023-01-20T07:43:45.495Z,100174.50
2023-01-20T07:46:21.459Z,100177.03
2023-01-20T07:48:48.162Z,100187.97
2023-01-20T07:51:21.275Z,100190.88
2023-01-20T07:53:50.974Z,100197.38
2023-01-20T07:56:21.694Z,100200.72
2023-01-20T07:58:52.842Z,100195.34
2023-01-20T08:01:20.623Z,100212.63
2023-01-20T08:03:47.971Z,100215.97
2023-01-20T08:06:16.866Z,100223.59
2023-01-20T08:08:43.855Z,100225.00
2023-01-20T08:11:12.640Z,100225.31
2023-01-20T08:13:39.854Z,100232.63
2023-01-20T08:16:08.545Z,100233.31
2023-01-20T08:18:35.606Z,100243.72
2023-01-20T08:21:06.480Z,100245.94
2023-01-20T08:23:34.197Z,100250.00
2023-01-20T08:26:02.151Z,100251.66
2023-01-20T08:28:29.740Z,100252.91
2023-01-20T08:31:07.997Z,100247.53
2023-01-20T08:33:35.119Z,100256.28
2023-01-20T08:36:10.970Z,100253.66
2023-01-20T08:38:38.227Z,100261.00
2023-01-20T08:41:12.034Z,100261.53
2023-01-20T08:43:38.967Z,100261.97
2023-01-20T08:46:11.553Z,100273.06
2023-01-20T08:48:39.359Z,100269.63
2023-01-20T08:51:09.603Z,100273.38
2023-01-20T08:53:36.399Z,100268.22
2023-01-20T08:56:03.824Z,100274.19
2023-01-20T08:58:34.862Z,100272.09
2023-01-20T09:01:07.659Z,100266.69
2023-01-20T09:03:34.294Z,100265.03
2023-01-20T09:06:04.765Z,100262.81
2023-01-20T09:08:31.562Z,100263.25
2023-01-20T09:11:21.012Z,100254.22
2023-01-20T09:13:47.898Z,100261.16
2023-01-20T09:16:16.211Z,100243.94
2023-01-20T09:18:43.336Z,100243.53
2023-01-20T09:21:19.347Z,100240.06
2023-01-20T09:23:48.004Z,100237.72
2023-01-20T09:26:33.890Z,100223.59
2023-01-20T09:29:11.439Z,100204.84
2023-01-20T09:31:40.161Z,100200.66
2023-01-20T09:34:07.041Z,100193.88
2023-01-20T09:36:41.366Z,100187.22
2023-01-20T09:39:27.668Z,100177.25
2023-01-20T09:42:12.981Z,100164.19
2023-01-20T09:45:09.375Z,100166.00
2023-01-20T09:47:43.866Z,100160.03
2023-01-20T09:50:43.510Z,100153.50
2023-01-20T09:53:30.834Z,100143.34
2023-01-20T09:55:59.919Z,100144.44
2023-01-20T09:58:45.212Z,100146.97
2023-01-20T10:01:24.547Z,100141.97
2023-01-20T10:04:06.404Z,100143.47
2023-01-20T10:06:39.550Z,100136.41
2023-01-20T10:09:23.414Z,100128.34
2023-01-20T10:11:51.847Z,100127.22
2023-01-20T10:14:33.164Z,100122.41
2023-01-20T10:17:21.018Z,100128.13
2023-01-20T10:19:54.520Z,100125.81
2023-01-20T10:22:41.330Z,100117.72
2023-01-20T10:25:23.104Z,100109.28
2023-01-20T10:27:58.721Z,100109.63
2023-01-20T10:30:32.121Z,100110.44
2023-01-20T10:33:22.852Z,100109.38
2023-01-20T10:35:52.023Z,100099.66
2023-01-20T10:38:46.065Z,100113.94
2023-01-20T10:41:31.124Z,100108.09
2023-01-20T10:43:58.708Z,100108.03
2023-01-20T10:47:00.553Z,100109.19
2023-01-20T10:50:18.641Z,100104.72
2023-01-20T10:53:00.715Z,100105.53
2023-01-20T10:55:50.749Z,100121.06
2023-01-20T10:58:22.288Z,100111.72
2023-01-20T11:00:50.033Z,100118.06
2023-01-20T11:03:19.955Z,100119.69
2023-01-20T11:05:48.005Z,100119.22
2023-01-20T11:08:19.675Z,100121.34
2023-01-20T11:10:47.688Z,100127.16
2023-01-20T11:13:14.418Z,100129.44
2023-01-20T11:15:48.934Z,100126.34
2023-01-20T11:18:15.461Z,100127.72
2023-01-20T11:20:53.590Z,100131.81
2023-01-20T11:23:38.688Z,100138.81
2023-01-20T11:26:21.578Z,100140.19
2023-01-20T11:28:49.429Z,100154.31
2023-01-20T11:31:16.461Z,100152.84
2023-01-20T11:33:57.756Z,100159.66
2023-01-20T11:36:25.807Z,100148.78
2023-01-20T11:38:56.575Z,100162.50
2023-01-20T11:41:23.107Z,100160.81
2023-01-20T11:43:51.321Z,100165.66
2023-01-20T11:46:29.980Z,100175.25
2023-01-20T11:49:25.942Z,100173.13
2023-01-20T11:51:54.936Z,100186.94
2023-01-20T11:54:27.017Z,100184.66
2023-01-20T11:57:10.639Z,100187.00
2023-01-20T11:59:49.309Z,100191.16
2023-01-20T12:02:24.642Z,100194.16
2023-01-20T12:05:03.395Z,100194.84
2023-01-20T12:07:43.312Z,100192.13
2023-01-20T12:10:25.275Z,100199.53
2023-01-20T12:12:56.866Z,100203.69
2023-01-20T12:15:26.685Z,100204.28
2023-01-20T12:18:13.000Z,100216.38
2023-01-20T12:20:54.891Z,100214.63
2023-01-20T12:23:46.581Z,100222.75
2023-01-20T12:26:18.453Z,100223.69
2023-01-20T12:28:59.167Z,100234.81
2023-01-20T12:31:26.045Z,100245.75
2023-01-20T12:34:03.450Z,100238.94
2023-01-20T12:36:39.369Z,100247.16
2023-01-20T12:39:12.121Z,100253.53
2023-01-20T12:42:02.647Z,100248.28
2023-01-20T12:44:38.194Z,100256.28
2023-01-20T12:47:46.361Z,100250.44
2023-01-20T12:50:23.882Z,100264.22
2023-01-20T12:53:17.925Z,100266.00
2023-01-20T12:55:52.578Z,100274.38
2023-01-20T12:58:41.239Z,100276.22
2023-01-20T13:01:14.953Z,100273.25
2023-01-20T13:03:55.503Z,100280.06
2023-01-20T13:06:39.406Z,100283.16
2023-01-20T13:09:40.475Z,100288.38
2023-01-20T13:12:19.301Z,100288.00
2023-01-20T13:14:49.422Z,100294.72
2023-01-20T13:17:38.734Z,100297.66
2023-01-20T13:20:16.496Z,100289.75
2023-01-20T13:23:04.518Z,100304.16
2023-01-20T13:25:39.263Z,100304.69
2023-01-20T13:28:22.068Z,100304.78
2023-01-20T13:31:03.979Z,100300.69
2023-01-20T13:36:42.957Z,100311.56
2023-01-20T13:39:41.030Z,100312.69
2023-01-20T13:42:37.919Z,100327.13
2023-01-20T13:45:14.408Z,100329.38
2023-01-20T13:48:06.004Z,100333.84
2023-01-20T13:50:33.867Z,100336.72
2023-01-20T13:53:04.747Z,100345.44
2023-01-20T13:55:40.919Z,100345.44
2023-01-20T13:58:37.012Z,100349.13
2023-01-20T14:01:07.795Z,100349.53
2023-01-20T14:03:36.737Z,100358.84
2023-01-20T14:06:18.828Z,100355.81
2023-01-20T14:08:50.449Z,100359.50
2023-01-20T14:11:22.561Z,100362.28
2023-01-20T14:13:53.551Z,100375.50
2023-01-20T14:16:23.213Z,100373.88
2023-01-20T14:18:50.111Z,100370.69
2023-01-20T14:21:20.231Z,100373.06
2023-01-20T14:23:47.037Z,100371.09
2023-01-20T14:26:23.732Z,100388.91
2023-01-20T14:29:00.930Z,100382.25
2023-01-20T14:31:36.592Z,100385.22
2023-01-20T14:34:19.860Z,100390.97
2023-01-20T14:36:47.332Z,100391.75
2023-01-20T14:39:25.841Z,100398.59
2023-01-20T14:41:55.581Z,100403.47
2023-01-20T14:44:28.201Z,100402.63
2023-01-20T14:46:59.758Z,100406.69
2023-01-20T14:49:39.277Z,100414.63
2023-01-20T14:52:07.349Z,100421.69
2023-01-20T14:54:38.246Z,100422.16
2023-01-20T14:57:25.019Z,100432.16
2023-01-20T15:00:15.812Z,100433.25
2023-01-20T15:02:49.219Z,100438.81
2023-01-20T15:05:29.954Z,100444.38
2023-01-20T15:08:11.768Z,100445.81
2023-01-20T15:10:49.216Z,100458.44
2023-01-20T15:13:27.915Z,100451.94
2023-01-20T15:16:28.411Z,100463.06
2023-01-20T15:19:13.468Z,100465.53
2023-01-20T15:21:42.003Z,100463.03
2023-01-20T15:24:23.233Z,100476.91
2023-01-20T15:26:52.399Z,100475.69
2023-01-20T15:29:27.576Z,100485.41
2023-01-20T15:31:56.168Z,100487.75
2023-01-20T15:34:23.579Z,100492.34
2023-01-20T15:36:51.260Z,100491.78
2023-01-20T15:39:20.782Z,100495.53
2023-01-20T15:41:48.692Z,100506.59
2023-01-20T15:44:15.564Z,100504.66
2023-01-20T15:46:42.325Z,100505.91
2023-01-20T15:49:12.048Z,100518.81
2023-01-20T15:51:45.232Z,100518.50
2023-01-20T15:54:13.685Z,100524.31
2023-01-20T15:56:42.004Z,100526.69
2023-01-20T15:59:17.079Z,100529.97
2023-01-20T16:01:49.821Z,100534.66
2023-01-20T16:04:16.794Z,100535.88
2023-01-20T16:06:52.896Z,100543.94
2023-01-20T16:09:37.062Z,100548.63
2023-01-20T16:12:07.170Z,100553.09
2023-01-20T16:14:36.142Z,100547.94
2023-01-20T16:17:12.857Z,100562.78
2023-01-20T16:19:40.876Z,100562.22
2023-01-20T16:22:08.681Z,100568.19
2023-01-20T16:24:38.100Z,100565.81
2023-01-20T16:27:16.913Z,100566.78
2023-01-20T16:29:43.597Z,100574.00
2023-01-20T16:32:10.341Z,100577.88
2023-01-20T16:34:37.267Z,100578.16
2023-01-20T16:37:06.424Z,100584.97
2023-01-20T16:39:36.117Z,100590.97
2023-01-20T16:42:05.410Z,100593.44
2023-01-20T16:44:37.601Z,100596.22
2023-01-20T16:47:21.872Z,100604.00
2023-01-20T16:49:50.509Z,100608.88
2023-01-20T16:52:17.475Z,100613.03
2023-01-20T16:54:44.265Z,100625.16
2023-01-20T16:57:11.062Z,100622.13
2023-01-20T16:59:37.725Z,100626.66
2023-01-20T17:02:12.123Z,100630.53
2023-01-20T17:04:38.928Z,100634.84
2023-01-20T17:07:08.378Z,100644.69
2023-01-20T17:09:45.717Z,100644.69
2023-01-20T17:12:12.426Z,100642.03
2023-01-20T17:14:39.256Z,100655.81
2023-01-20T17:17:17.615Z,100654.00
2023-01-20T17:19:44.596Z,100654.84
2023-01-20T17:22:11.551Z,100662.78
2023-01-20T17:24:43.127Z,100660.13
2023-01-20T17:27:10.106Z,100675.94
2023-01-20T17:29:38.379Z,100673.44
2023-01-20T17:32:15.283Z,100673.31
2023-01-20T17:34:42.065Z,100681.47
2023-01-20T17:37:09.727Z,100676.22
2023-01-20T17:39:37.447Z,100678.00
2023-01-20T17:42:04.475Z,100692.84
2023-01-20T17:44:40.264Z,100690.09
2023-01-20T17:47:08.104Z,100690.22
2023-01-20T17:49:38.209Z,100692.41
2023-01-20T17:52:05.951Z,100700.56
2023-01-20T17:54:37.493Z,100707.78
2023-01-20T17:57:04.143Z,100707.19
2023-01-20T17:59:33.884Z,100713.56
2023-01-20T18:02:06.585Z,100720.63
2023-01-20T18:04:35.731Z,100724.34
2023-01-20T18:07:09.078Z,100729.06
2023-01-20T18:09:38.734Z,100728.44
2023-01-20T18:12:08.479Z,100734.81
2023-01-20T18:14:38.697Z,100747.16
2023-01-20T18:17:05.607Z,100747.16
2023-01-20T18:19:34.278Z,100753.53
2023-01-20T18:22:05.725Z,100760.59
2023-01-20T18:24:40.248Z,100764.06
2023-01-20T18:27:06.949Z,100762.63
2023-01-20T18:29:36.518Z,100761.34
2023-01-20T18:32:05.678Z,100769.72
2023-01-20T18:34:36.809Z,100768.31
2023-01-20T18:37:11.057Z,100769.16
2023-01-20T18:39:37.881Z,100778.03
2023-01-20T18:42:07.304Z,100777.19
2023-01-20T18:44:35.578Z,100784.50
2023-01-20T18:47:11.114Z,100789.66
2023-01-20T18:49:37.753Z,100798.50
2023-01-20T18:52:14.899Z,100804.78
2023-01-20T18:54:41.527Z,100802.88
2023-01-20T18:57:09.211Z,100808.94
2023-01-20T18:59:43.425Z,100806.16
2023-01-20T19:02:10.828Z,100806.63
2023-01-20T19:04:37.556Z,100811.00
2023-01-20T19:07:12.785Z,100811.00
2023-01-20T19:09:39.545Z,100813.41
2023-01-20T19:12:08.891Z,100818.97
2023-01-20T19:14:35.723Z,100826.00
2023-01-20T19:17:08.376Z,100826.44
2023-01-20T19:19:37.424Z,100831.47
2023-01-20T19:22:06.929Z,100836.00
2023-01-20T19:24:42.319Z,100835.28
2023-01-20T19:27:09.257Z,100833.59
2023-01-20T19:29:48.215Z,100833.53
2023-01-20T19:32:14.830Z,100837.88
2023-01-20T19:34:45.113Z,100843.78
2023-01-20T19:37:17.062Z,100845.91
2023-01-20T19:39:43.764Z,100849.81
2023-01-20T19:42:10.433Z,100854.03
2023-01-20T19:44:39.558Z,100851.41
2023-01-20T19:47:06.225Z,100856.22
2023-01-20T19:49:35.503Z,100866.13
2023-01-20T19:52:06.782Z,100870.84
2023-01-20T19:54:40.924Z,100866.75
2023-01-20T19:57:07.568Z,100870.84
2023-01-20T19:59:40.715Z,100878.50
2023-01-20T20:02:10.553Z,100875.56
2023-01-20T20:04:37.183Z,100888.38
2023-01-20T20:07:06.779Z,100885.66
2023-01-20T20:09:42.459Z,100897.72
2023-01-20T20:12:09.147Z,100895.50
2023-01-20T20:14:35.760Z,100899.38
2023-01-20T20:17:03.352Z,100901.06
2023-01-20T20:19:30.092Z,100905.16
2023-01-20T20:21:58.618Z,100909.44
2023-01-20T20:24:27.585Z,100910.41
2023-01-20T20:26:54.297Z,100906.63
2023-01-20T20:29:21.004Z,100913.78
2023-01-20T20:31:47.767Z,100919.75
2023-01-20T20:34:16.733Z,100924.59
2023-01-20T20:36:43.500Z,100915.34
2023-01-20T20:39:13.887Z,100926.91
2023-01-20T20:41:40.803Z,100925.19
2023-01-20T20:44:07.588Z,100932.84
2023-01-20T20:46:34.303Z,100928.31
2023-01-20T20:49:03.733Z,100934.50
2023-01-20T20:51:32.425Z,100940.91
2023-01-20T20:54:00.704Z,100947.09
2023-01-20T20:56:31.366Z,100948.56
2023-01-20T20:59:02.235Z,100952.97
2023-01-20T21:01:31.056Z,100961.34
2023-01-20T21:03:58.295Z,100958.72
2023-01-20T21:06:25.162Z,100959.66
2023-01-20T21:08:52.292Z,100970.81
2023-01-20T21:11:20.505Z,100965.84
2023-01-20T21:13:49.272Z,100963.47
2023-01-20T21:16:23.392Z,100967.66
2023-01-20T21:18:52.120Z,100966.22
2023-01-20T21:21:19.536Z,100966.22
2023-01-20T21:23:53.559Z,100978.59
2023-01-20T21:26:20.959Z,100979.41
2023-01-20T21:28:49.237Z,100980.34
2023-01-20T21:31:21.545Z,100991.00
2023-01-20T21:33:53.573Z,100984.53
2023-01-20T21:36:20.862Z,100990.00
2023-01-20T21:38:47.544Z,100988.09
2023-01-20T21:41:17.903Z,100993.06
2023-01-20T21:44:04.613Z,101000.06
2023-01-20T21:46:38.955Z,100995.34
2023-01-20T21:49:25.031Z,101009.56
2023-01-20T21:52:10.269Z,101008.75
2023-01-20T21:54:39.370Z,101010.22
2023-01-20T21:57:05.998Z,101009.44
2023-01-20T21:59:37.143Z,101018.44
2023-01-20T22:02:11.505Z,101019.69
2023-01-20T22:04:39.640Z,101020.81
2023-01-20T22:07:08.664Z,101023.66
2023-01-20T22:09:40.162Z,101027.44
2023-01-20T22:12:07.290Z,101024.44
2023-01-20T22:14:41.503Z,101036.34
2023-01-20T22:17:12.367Z,101038.13
2023-01-20T22:19:39.380Z,101035.22
2023-01-20T22:22:06.376Z,101044.22
2023-01-20T22:24:32.925Z,101043.59
2023-01-20T22:26:59.972Z,101052.00
2023-01-20T22:29:26.980Z,101046.81
2023-01-20T22:31:55.291Z,101055.06
2023-01-20T22:34:22.199Z,101061.06
2023-01-20T22:36:48.791Z,101064.16
2023-01-20T22:39:15.714Z,101067.63
2023-01-20T22:41:42.619Z,101074.63
2023-01-20T22:44:12.342Z,101076.78
2023-01-20T22:46:38.957Z,101078.03
2023-01-20T22:49:05.514Z,101085.88
2023-01-20T22:51:32.179Z,101087.56
2023-01-20T22:54:00.380Z,101093.75
2023-01-20T22:56:31.885Z,101097.66
2023-01-20T22:58:59.230Z,101105.72
2023-01-20T23:01:32.402Z,101112.16
2023-01-20T23:04:01.803Z,101105.41
2023-01-20T23:06:30.644Z,101112.72
2023-01-20T23:08:57.281Z,101118.50
2023-01-20T23:11:24.022Z,101122.25
2023-01-20T23:13:51.510Z,101122.34
2023-01-20T23:16:22.397Z,101128.34
2023-01-20T23:18:50.739Z,101130.00
2023-01-20T23:21:17.978Z,101138.38
2023-01-20T23:23:46.017Z,101146.16
2023-01-20T23:26:17.772Z,101144.56
2023-01-20T23:28:45.765Z,101140.28
2023-01-20T23:31:14.850Z,101149.25
2023-01-20T23:33:45.146Z,101153.00
2023-01-20T23:36:23.784Z,101155.16
2023-01-20T23:38:53.977Z,101152.38
2023-01-20T23:41:20.635Z,101158.75
2023-01-20T23:43:47.314Z,101161.00
2023-01-20T23:46:16.373Z,101163.78
2023-01-20T23:48:49.251Z,101165.66
2023-01-20T23:51:18.326Z,101168.34
2023-01-20T23:53:48.050Z,101172.66
2023-01-20T23:56:20.591Z,101185.91
2023-01-20T23:58:47.674Z,101185.28
